createdAt,value
2023-02-17T00:06:41.555Z,98432.00
2023-02-17T00:10:42.957Z,98422.00
2023-02-17T00:14:44.141Z,98424.00
2023-02-17T00:18:45.900Z,98422.00
2023-02-17T00:22:47.037Z,98417.00
2023-02-17T00:26:48.677Z,98418.00
2023-02-17T00:30:49.840Z,98412.00
2023-02-17T00:34:52.830Z,98421.00
2023-02-17T00:38:56.084Z,98421.00
2023-02-17T00:42:57.069Z,98408.00
2023-02-17T00:46:58.065Z,98410.00
2023-02-17T00:50:59.260Z,98416.00
2023-02-17T00:55:00.380Z,98419.00
2023-02-17T00:59:01.596Z,98428.00
2023-02-17T01:03:02.920Z,98416.00
2023-02-17T01:07:04.302Z,98420.00
2023-02-17T01:11:19.271Z,98420.00
2023-02-17T01:15:20.405Z,98436.00
2023-02-17T01:19:21.597Z,98425.00
2023-02-17T01:23:22.644Z,98425.00
2023-02-17T01:27:23.627Z,98423.00
2023-02-17T01:31:28.675Z,98421.00
2023-02-17T01:35:29.890Z,98423.00
2023-02-17T01:39:30.875Z,98412.00
2023-02-17T01:43:32.760Z,98392.00
2023-02-17T01:47:33.979Z,98393.00
2023-02-17T01:51:37.757Z,98382.00
2023-02-17T01:55:40.828Z,98372.00
2023-02-17T01:59:42.096Z,98359.00
2023-02-17T02:03:43.817Z,98342.00
2023-02-17T02:07:46.866Z,98333.00
2023-02-17T02:11:50.211Z,98341.00
2023-02-17T02:15:55.199Z,98332.00
2023-02-17T02:20:18.636Z,98329.00
2023-02-17T02:24:26.560Z,98320.00
2023-02-17T02:28:54.502Z,98319.00
2023-02-17T02:33:14.270Z,98325.00
2023-02-17T02:37:28.317Z,98313.00
2023-02-17T02:41:36.021Z,98317.00
2023-02-17T02:45:37.265Z,98311.00
2023-02-17T02:49:38.227Z,98304.00
2023-02-17T02:54:06.534Z,98298.00
2023-02-17T02:58:23.784Z,98290.00
2023-02-17T03:02:51.981Z,98300.00
2023-02-17T03:06:56.896Z,98300.00
2023-02-17T03:10:58.025Z,98293.00
2023-02-17T03:15:05.983Z,98294.00
2023-02-17T03:19:09.337Z,98299.00
2023-02-17T03:23:10.573Z,98288.00
2023-02-17T03:27:11.664Z,98292.00
2023-02-17T03:31:12.912Z,98295.00
2023-02-17T03:35:14.427Z,98286.00
2023-02-17T03:39:16.375Z,98281.00
2023-02-17T03:43:18.072Z,98305.00
2023-02-17T03:47:19.285Z,98274.00
2023-02-17T03:51:22.384Z,98272.00
2023-02-17T03:55:23.532Z,98281.00
2023-02-17T03:59:24.881Z,98283.00
2023-02-17T04:03:26.184Z,98268.00
2023-02-17T04:07:27.624Z,98279.00
2023-02-17T04:11:28.794Z,98275.00
2023-02-17T04:15:29.888Z,98280.00
2023-02-17T04:19:31.029Z,98285.00
2023-02-17T04:23:34.660Z,98266.00
2023-02-17T04:27:35.618Z,98275.00
2023-02-17T04:31:36.802Z,98266.00
2023-02-17T04:35:38.162Z,98280.00
2023-02-17T04:39:39.262Z,98298.00
2023-02-17T04:43:40.247Z,98275.00
2023-02-17T04:47:41.422Z,98266.00
2023-02-17T04:51:42.326Z,98280.00
2023-02-17T04:55:43.735Z,98272.00
2023-02-17T04:59:45.032Z,98282.00
2023-02-17T05:03:46.005Z,98271.00
2023-02-17T05:07:47.906Z,98262.00
2023-02-17T05:11:49.012Z,98265.00
2023-02-17T05:15:50.309Z,98260.00
2023-02-17T05:19:51.428Z,98279.00
2023-02-17T05:23:52.372Z,98280.00
2023-02-17T05:27:53.457Z,98288.00
2023-02-17T05:31:57.341Z,98293.00
2023-02-17T05:36:03.770Z,98290.00
2023-02-17T05:40:06.858Z,98298.00
2023-02-17T05:44:07.864Z,98290.00
2023-02-17T05:48:09.298Z,98288.00
2023-02-17T05:56:34.553Z,98288.00
2023-02-17T06:00:35.666Z,98279.00
2023-02-17T06:04:36.843Z,98286.00
2023-02-17T06:08:38.795Z,98295.00
2023-02-17T06:12:39.828Z,98283.00
2023-02-17T06:16:40.875Z,98271.00
2023-02-17T06:20:41.908Z,98267.00
2023-02-17T06:24:43.024Z,98278.00
2023-02-17T06:28:44.098Z,98275.00
2023-02-17T06:32:45.198Z,98270.00
2023-02-17T06:36:46.204Z,98291.00
2023-02-17T06:40:47.421Z,98288.00
2023-02-17T06:44:48.377Z,98286.00
2023-02-17T06:48:49.320Z,98294.00
2023-02-17T06:52:50.546Z,98299.00
2023-02-17T06:56:51.492Z,98299.00
2023-02-17T07:00:52.561Z,98310.00
2023-02-17T07:04:53.565Z,98297.00
2023-02-17T07:08:54.950Z,98306.00
2023-02-17T07:12:55.957Z,98307.00
2023-02-17T07:16:57.048Z,98304.00
2023-02-17T07:20:58.343Z,98328.00
2023-02-17T07:24:59.632Z,98301.00
2023-02-17T07:29:01.207Z,98294.00
2023-02-17T07:33:02.380Z,98297.00
2023-02-17T07:37:03.559Z,98303.00
2023-02-17T07:41:07.890Z,98171.00
2023-02-17T07:45:10.479Z,98300.00
2023-02-17T07:49:11.819Z,98301.00
2023-02-17T07:53:12.832Z,98305.00
2023-02-17T07:57:13.873Z,98296.00
2023-02-17T08:01:20.606Z,98299.00
2023-02-17T08:05:21.939Z,98301.00
2023-02-17T08:09:41.533Z,98298.00
2023-02-17T08:13:45.058Z,98295.00
2023-02-17T08:17:50.690Z,98273.00
2023-02-17T08:21:51.781Z,98293.00
2023-02-17T08:25:53.151Z,98298.00
2023-02-17T08:29:55.772Z,98300.00
2023-02-17T08:34:00.466Z,98301.00
2023-02-17T08:38:01.968Z,98294.00
2023-02-17T08:42:05.122Z,98292.00
2023-02-17T08:46:10.568Z,98288.00
2023-02-17T08:50:15.588Z,98307.00
2023-02-17T08:54:17.887Z,98310.00
2023-02-17T08:58:18.903Z,98307.00
2023-02-17T09:02:20.652Z,98325.00
2023-02-17T09:06:22.197Z,98307.00
2023-02-17T09:10:23.508Z,98319.00
2023-02-17T09:14:25.042Z,98308.00
2023-02-17T09:18:26.349Z,98300.00
2023-02-17T09:22:31.978Z,98305.00
2023-02-17T09:26:30.845Z,98299.00
2023-02-17T09:30:32.321Z,98300.00
2023-02-17T09:34:36.507Z,98300.00
2023-02-17T09:38:39.075Z,98301.00
2023-02-17T09:42:40.708Z,98298.00
2023-02-17T09:47:00.628Z,98310.00
2023-02-17T09:51:01.322Z,98315.00
2023-02-17T09:55:15.404Z,98317.00
2023-02-17T09:59:38.626Z,98332.00
2023-02-17T10:03:44.127Z,98330.00
2023-02-17T10:07:55.111Z,98335.00
2023-02-17T10:12:13.723Z,98332.00
2023-02-17T10:16:21.683Z,98321.00
2023-02-17T10:20:38.553Z,98321.00
2023-02-17T10:24:39.641Z,98320.00
2023-02-17T10:28:53.971Z,98312.00
2023-02-17T10:33:14.231Z,98322.00
2023-02-17T10:37:34.654Z,98321.00
2023-02-17T10:41:38.273Z,98313.00
2023-02-17T10:45:47.778Z,98315.00
2023-02-17T10:49:51.477Z,98313.00
2023-02-17T10:53:56.514Z,98312.00
2023-02-17T10:58:05.020Z,98317.00
2023-02-17T11:02:15.997Z,98311.00
2023-02-17T11:06:21.782Z,98312.00
2023-02-17T11:10:26.981Z,98307.00
2023-02-17T11:14:31.412Z,98315.00
2023-02-17T11:18:35.982Z,98305.00
2023-02-17T11:22:40.946Z,98306.00
2023-02-17T11:26:42.072Z,98293.00
2023-02-17T11:30:46.900Z,98295.00
2023-02-17T11:34:51.899Z,98287.00
2023-02-17T11:38:53.572Z,98293.00
2023-02-17T11:42:59.293Z,98304.00
2023-02-17T11:47:15.969Z,98303.00
2023-02-17T11:51:40.494Z,98290.00
2023-02-17T11:56:05.868Z,98275.00
2023-02-17T12:00:17.276Z,98273.00
2023-02-17T12:04:32.597Z,98274.00
2023-02-17T12:09:07.453Z,98269.00
2023-02-17T12:13:31.220Z,98240.00
2023-02-17T12:17:38.963Z,98244.00
2023-02-17T12:22:19.558Z,98237.00
2023-02-17T12:26:24.813Z,98226.00
2023-02-17T12:30:32.265Z,98228.00
2023-02-17T12:34:47.299Z,98221.00
2023-02-17T12:38:58.311Z,98215.00
2023-02-17T12:43:03.573Z,98219.00
2023-02-17T12:47:08.417Z,98209.00
2023-02-17T12:51:22.673Z,98219.00
2023-02-17T12:55:39.152Z,98227.00
2023-02-17T12:59:46.497Z,98214.00
2023-02-17T13:03:48.174Z,98215.00
2023-02-17T13:07:55.953Z,98215.00
2023-02-17T13:12:24.439Z,98229.00
2023-02-17T13:16:27.663Z,98237.00
2023-02-17T13:20:45.194Z,98214.00
2023-02-17T13:24:54.802Z,98228.00
2023-02-17T13:29:20.991Z,98217.00
2023-02-17T13:33:25.941Z,98213.00
2023-02-17T13:37:36.967Z,98210.00
2023-02-17T13:41:47.763Z,98186.00
2023-02-17T13:46:01.617Z,98203.00
2023-02-17T13:50:03.645Z,98204.00
2023-02-17T13:54:07.494Z,98192.00
2023-02-17T13:58:10.260Z,98193.00
2023-02-17T14:02:35.207Z,98178.00
2023-02-17T14:06:37.854Z,98168.00
2023-02-17T14:10:39.622Z,98179.00
2023-02-17T14:14:41.177Z,98174.00
2023-02-17T14:18:42.377Z,98178.00
2023-02-17T14:22:48.683Z,98185.00
2023-02-17T14:26:48.126Z,98179.00
2023-02-17T14:30:50.682Z,98188.00
2023-02-17T14:34:51.863Z,98174.00
2023-02-17T14:38:57.892Z,98199.00
2023-02-17T14:42:59.094Z,98190.00
2023-02-17T14:47:00.554Z,98194.00
2023-02-17T14:51:01.643Z,98198.00
2023-02-17T14:55:03.179Z,98184.00
2023-02-17T14:59:04.631Z,98181.00
2023-02-17T15:03:06.449Z,98190.00
2023-02-17T15:07:14.152Z,98200.00
2023-02-17T15:11:34.721Z,98215.00
2023-02-17T15:15:37.721Z,98219.00
2023-02-17T15:19:38.770Z,98204.00
2023-02-17T15:23:40.508Z,98213.00
2023-02-17T15:27:42.772Z,98205.00
2023-02-17T15:31:46.704Z,98202.00
2023-02-17T15:35:52.653Z,98190.00
2023-02-17T15:39:53.687Z,98182.00
2023-02-17T15:43:57.355Z,98192.00
2023-02-17T15:48:08.421Z,98194.00
2023-02-17T15:52:16.552Z,98217.00
2023-02-17T16:00:30.998Z,98205.00
2023-02-17T16:04:32.332Z,98199.00
2023-02-17T16:08:33.531Z,98198.00
2023-02-17T16:12:36.347Z,98192.00
2023-02-17T16:16:37.283Z,98192.00
2023-02-17T16:20:38.641Z,98196.00
2023-02-17T16:24:39.685Z,98091.00
2023-02-17T16:28:40.791Z,98195.00
2023-02-17T16:32:42.400Z,98189.00
2023-02-17T16:36:44.019Z,98214.00
2023-02-17T16:40:47.770Z,98221.00
2023-02-17T16:44:48.815Z,98210.00
2023-02-17T16:48:50.052Z,98214.00
2023-02-17T16:52:53.242Z,98208.00
2023-02-17T16:56:55.609Z,98217.00
2023-02-17T17:00:56.821Z,98215.00
2023-02-17T17:04:58.670Z,98230.00
2023-02-17T17:08:59.889Z,98233.00
2023-02-17T17:13:00.939Z,98218.00
2023-02-17T17:17:05.680Z,98235.00
2023-02-17T17:21:06.988Z,98253.00
2023-02-17T17:25:08.281Z,98249.00
2023-02-17T17:29:11.880Z,98253.00
2023-02-17T17:33:13.056Z,98259.00
2023-02-17T17:37:14.202Z,98264.00
2023-02-17T17:41:15.449Z,98260.00
2023-02-17T17:45:17.598Z,98274.00
2023-02-17T17:49:18.610Z,98294.00
2023-02-17T17:53:19.731Z,98308.00
2023-02-17T17:57:21.875Z,98322.00
2023-02-17T18:01:22.991Z,98315.00
2023-02-17T18:05:24.541Z,98334.00
2023-02-17T18:09:32.023Z,98343.00
2023-02-17T18:13:32.322Z,98342.00
2023-02-17T18:17:36.200Z,98359.00
2023-02-17T18:21:38.799Z,98361.00
2023-02-17T18:25:40.005Z,98372.00
2023-02-17T18:29:41.689Z,98378.00
2023-02-17T18:33:43.173Z,98376.00
2023-02-17T18:37:45.615Z,98387.00
2023-02-17T18:41:47.272Z,98386.00
2023-02-17T18:45:49.428Z,98404.00
2023-02-17T18:49:50.863Z,98396.00
2023-02-17T18:53:53.489Z,98416.00
2023-02-17T18:57:55.723Z,98414.00
2023-02-17T19:02:00.446Z,98426.00
2023-02-17T19:06:10.459Z,98431.00
2023-02-17T19:10:13.568Z,98442.00
2023-02-17T19:14:14.640Z,98447.00
2023-02-17T19:18:15.712Z,98448.00
2023-02-17T19:22:17.568Z,98458.00
2023-02-17T19:26:19.711Z,98456.00
2023-02-17T19:30:21.235Z,98469.00
2023-02-17T19:34:22.358Z,98458.00
2023-02-17T19:38:23.762Z,98447.00
2023-02-17T19:42:24.931Z,98452.00
2023-02-17T19:46:26.081Z,98455.00
2023-02-17T19:50:27.821Z,98465.00
2023-02-17T19:54:29.011Z,98457.00
2023-02-17T19:58:30.667Z,98463.00
2023-02-17T20:02:31.854Z,98493.00
2023-02-17T20:06:36.051Z,98471.00
2023-02-17T20:10:39.824Z,98472.00
2023-02-17T20:14:41.566Z,98478.00
2023-02-17T20:18:46.177Z,98475.00
2023-02-17T20:22:47.274Z,98482.00
2023-02-17T20:26:50.318Z,98465.00
2023-02-17T20:30:51.288Z,98477.00
2023-02-17T20:34:52.806Z,98470.00
2023-02-17T20:38:53.923Z,98480.00
2023-02-17T20:42:55.197Z,98474.00
2023-02-17T20:46:57.033Z,98470.00
2023-02-17T20:50:58.490Z,98470.00
2023-02-17T20:54:59.656Z,98475.00
2023-02-17T20:59:01.217Z,98477.00
2023-02-17T21:03:02.626Z,98476.00
2023-02-17T21:07:03.718Z,98488.00
2023-02-17T21:11:04.928Z,98492.00
2023-02-17T21:15:06.471Z,98493.00
2023-02-17T21:19:07.483Z,98498.00
2023-02-17T21:23:08.667Z,98493.00
2023-02-17T21:27:09.764Z,98497.00
2023-02-17T21:31:10.982Z,98488.00
2023-02-17T21:35:12.221Z,98476.00
2023-02-17T21:39:13.859Z,98478.00
2023-02-17T21:43:34.581Z,98486.00
2023-02-17T21:47:35.673Z,98490.00
2023-02-17T21:51:38.549Z,98502.00
2023-02-17T21:55:40.286Z,98500.00
2023-02-17T21:59:43.509Z,98497.00
2023-02-17T22:03:44.764Z,98488.00
2023-02-17T22:07:50.283Z,98483.00
2023-02-17T22:11:51.242Z,98394.00
2023-02-17T22:15:58.409Z,98515.00
2023-02-17T22:19:59.449Z,98482.00
2023-02-17T22:24:01.572Z,98477.00
2023-02-17T22:28:02.546Z,98478.00
2023-02-17T22:32:04.279Z,98486.00
2023-02-17T22:36:08.849Z,98494.00
2023-02-17T22:40:10.616Z,98487.00
2023-02-17T22:44:11.580Z,98491.00
2023-02-17T22:48:12.637Z,98481.00
2023-02-17T22:52:13.557Z,98473.00
2023-02-17T22:56:15.367Z,98487.00
2023-02-17T23:00:17.098Z,98484.00
2023-02-17T23:04:18.208Z,98489.00
2023-02-17T23:08:19.154Z,98493.00
2023-02-17T23:12:20.112Z,98489.00
2023-02-17T23:16:21.327Z,98495.00
2023-02-17T23:20:24.306Z,98497.00
2023-02-17T23:24:26.451Z,98488.00
2023-02-17T23:28:27.421Z,98495.00
2023-02-17T23:32:28.524Z,98490.00
2023-02-17T23:36:30.117Z,98493.00
2023-02-17T23:40:31.263Z,98491.00
2023-02-17T23:44:32.321Z,98482.00
2023-02-17T23:48:33.308Z,98491.00
2023-02-17T23:52:34.591Z,98488.00
2023-02-17T23:56:35.685Z,98502.00
